Map

Track Data

SID SEASON NUMBER BASIN SUBBASIN NAME ISO_TIME NATURE LAT LON WMO_WIND WMO_PRES WMO_AGENCY TRACK_TYPE DIST2LAND LANDFALL IFLAG USA_AGENCY USA_ATCF_ID USA_LAT USA_LON USA_RECORD USA_STATUS USA_WIND USA_PRES USA_SSHS USA_R34_NE USA_R34_SE USA_R34_SW USA_R34_NW USA_R50_NE USA_R50_SE USA_R50_SW USA_R50_NW USA_R64_NE USA_R64_SE USA_R64_SW USA_R64_NW USA_POCI USA_ROCI USA_RMW USA_EYE TOKYO_LAT TOKYO_LON TOKYO_GRADE TOKYO_WIND TOKYO_PRES TOKYO_R50_DIR TOKYO_R50_LONG TOKYO_R50_SHORT TOKYO_R30_DIR TOKYO_R30_LONG TOKYO_R30_SHORT TOKYO_LAND CMA_LAT CMA_LON CMA_CAT CMA_WIND CMA_PRES HKO_LAT HKO_LON HKO_CAT HKO_WIND HKO_PRES NEWDELHI_LAT NEWDELHI_LON NEWDELHI_GRADE NEWDELHI_WIND NEWDELHI_PRES NEWDELHI_CI NEWDELHI_DP NEWDELHI_POCI REUNION_LAT REUNION_LON REUNION_TYPE REUNION_WIND REUNION_PRES REUNION_TNUM REUNION_CI REUNION_RMW REUNION_R34_NE REUNION_R34_SE REUNION_R34_SW REUNION_R34_NW REUNION_R50_NE REUNION_R50_SE REUNION_R50_SW REUNION_R50_NW REUNION_R64_NE REUNION_R64_SE REUNION_R64_SW REUNION_R64_NW BOM_LAT BOM_LON BOM_TYPE BOM_WIND BOM_PRES BOM_TNUM BOM_CI BOM_RMW BOM_R34_NE BOM_R34_SE BOM_R34_SW BOM_R34_NW BOM_R50_NE BOM_R50_SE BOM_R50_SW BOM_R50_NW BOM_R64_NE BOM_R64_SE BOM_R64_SW BOM_R64_NW BOM_ROCI BOM_POCI BOM_EYE BOM_POS_METHOD BOM_PRES_METHOD NADI_LAT NADI_LON NADI_CAT NADI_WIND NADI_PRES WELLINGTON_LAT WELLINGTON_LON WELLINGTON_WIND WELLINGTON_PRES DS824_LAT DS824_LON DS824_STAGE DS824_WIND DS824_PRES TD9636_LAT TD9636_LON TD9636_STAGE TD9636_WIND TD9636_PRES TD9635_LAT TD9635_LON TD9635_WIND TD9635_PRES TD9635_ROCI NEUMANN_LAT NEUMANN_LON NEUMANN_CLASS NEUMANN_WIND NEUMANN_PRES MLC_LAT MLC_LON MLC_CLASS MLC_WIND MLC_PRES USA_GUST BOM_GUST BOM_GUST_PER REUNION_GUST REUNION_GUST_PER USA_SEAHGT USA_SEARAD_NE USA_SEARAD_SE USA_SEARAD_SW USA_SEARAD_NW STORM_SPEED STORM_DIR
1972059N08133 1972 19 WP MM NOT_NAMED 1972-02-28 06:00:00 TS 7.80000 133.100 main 716 651 __O___________ -1 7.80000 133.100 0 19 1002 13 289
1972059N08133 1972 19 WP MM NOT_NAMED 1972-02-28 09:00:00 TS 8.00526 132.495 main 651 597 __P___________ -1 8.00526 132.495 0 19 1002 12 290
1972059N08133 1972 19 WP MM NOT_NAMED 1972-02-28 12:00:00 TS 8.20000 132.000 main 597 566 __O___________ -1 8.20000 132.000 0 19 1002 9 295
1972059N08133 1972 19 WP MM NOT_NAMED 1972-02-28 15:00:00 TS 8.38489 131.690 main 567 547 __P___________ -1 8.38489 131.690 0 19 1002 6 309
1972059N08133 1972 19 WP MM NOT_NAMED 1972-02-28 18:00:00 TS 8.60000 131.500 main 549 529 __O___________ -1 8.60000 131.500 0 19 1002 6 317
1972059N08133 1972 19 WP MM NOT_NAMED 1972-02-28 21:00:00 TS 8.85493 131.245 main 524 524 __P___________ -1 8.85493 131.245 0 21 1002 7 334
1972059N08133 1972 19 WP MM NOT_NAMED 1972-02-29 00:00:00 TS 9.20000 131.200 main 533 533 __O___________ -1 9.20000 131.200 1 23 1002 8 20
1972059N08133 1972 19 WP MM NOT_NAMED 1972-02-29 03:00:00 TS 9.64754 131.538 main 578 578 __P___________ -1 9.64754 131.538 1 23 1002 13 42
1972059N08133 1972 19 WP MM NOT_NAMED 1972-02-29 06:00:00 TS 10.2000 132.100 main 655 655 __O___________ -1 10.2000 132.100 1 23 1002 16 42
1972059N08133 1972 19 WP MM NOT_NAMED 1972-02-29 09:00:00 TS 10.8272 132.633 main 723 723 __P___________ -1 10.8272 132.633 1 23 1002 18 42
1972059N08133 1972 19 WP MM NOT_NAMED 1972-02-29 12:00:00 TS 11.5000 133.300 main 818 818 __O___________ -1 11.5000 133.300 1 23 1002 20 49
1972059N08133 1972 19 WP MM NOT_NAMED 1972-02-29 15:00:00 TS 12.1729 134.192 main 925 925 __P___________ -1 12.1729 134.192 1 23 1002 22 54
1972059N08133 1972 19 WP MM NOT_NAMED 1972-02-29 18:00:00 TS 12.8000 135.100 main 1032 1032 __O___________ -1 12.8000 135.100 1 23 1002 20 53
1972059N08133 1972 19 WP MM NOT_NAMED 1972-02-29 21:00:00 TS 13.3596 135.810 main 1120 1120 __P___________ -1 13.3596 135.810 1 26 1002 16 52
1972059N08133 1972 19 WP MM NOT_NAMED 1972-03-01 00:00:00 TS 13.8000 136.400 main 1193 1193 __O___________ -1 13.8000 136.400 1 29 1002 13 55
1972059N08133 1972 19 WP MM NOT_NAMED 1972-03-01 03:00:00 TS 14.1172 136.923 main 1253 1253 __P___________ -1 14.1172 136.923 1 29 1002 11 63
1972059N08133 1972 19 WP MM NOT_NAMED 1972-03-01 06:00:00 TS 14.3000 137.400 main 1309 1309 __O___________ -1 14.3000 137.400 1 29 1002 10 73
1972059N08133 1972 19 WP MM NOT_NAMED 1972-03-01 09:00:00 TS 14.4100 137.923 main 1364 1364 __P___________ -1 14.4100 137.923 1 29 1002 10 84
1972059N08133 1972 19 WP MM NOT_NAMED 1972-03-01 12:00:00 TS 14.4000 138.400 main 1418 1418 __O___________ -1 14.4000 138.400 1 29 1002 9 98
1972059N08133 1972 19 WP MM NOT_NAMED 1972-03-01 15:00:00 TS 14.2875 138.810 main 1458 1458 __P___________ -1 14.2875 138.810 1 26 1002 7 114
1972059N08133 1972 19 WP MM NOT_NAMED 1972-03-01 18:00:00 TS 14.1000 139.100 main 1485 1485 __O___________ -1 14.1000 139.100 1 23 1002 6 129
1972059N08133 1972 19 WP MM NOT_NAMED 1972-03-01 21:00:00 TS 13.9149 139.283 main 1501 1497 __P___________ -1 13.9149 139.283 1 23 1003 4 154
1972059N08133 1972 19 WP MM NOT_NAMED 1972-03-02 00:00:00 TS 13.7000 139.300 main 1497 1470 __O___________ -1 13.7000 139.300 1 23 1004 6 196
1972059N08133 1972 19 WP MM NOT_NAMED 1972-03-02 03:00:00 TS 13.3826 139.130 main 1470 1446 __P___________ -1 13.3826 139.130 1 23 1004 6 218
1972059N08133 1972 19 WP MM NOT_NAMED 1972-03-02 06:00:00 TS 13.2000 138.900 main 1446 1435 __O___________ -1 13.2000 138.900 1 23 1004 4 265
1972059N08133 1972 19 WP MM NOT_NAMED 1972-03-02 09:00:00 TS 13.3525 138.748 main 1428 1428 __P___________ -1 13.3525 138.748 1 23 1005 5 339
1972059N08133 1972 19 WP MM NOT_NAMED 1972-03-02 12:00:00 TS 13.7000 138.700 main 1434 1434 __O___________ -1 13.7000 138.700 1 23 1006 7 3
1972059N08133 1972 19 WP MM NOT_NAMED 1972-03-02 15:00:00 TS 14.0699 138.783 main 1453 1453 __P___________ -1 14.0699 138.783 1 23 1006 9 20
1972059N08133 1972 19 WP MM NOT_NAMED 1972-03-02 18:00:00 TS 14.5000 139.000 main 1483 1483 __O___________ -1 14.5000 139.000 1 23 1006 10 28
1972059N08133 1972 19 WP MM NOT_NAMED 1972-03-02 21:00:00 TS 14.9497 139.260 main 1522 1522 __P___________ -1 14.9497 139.260 1 23 1006 11 37
1972059N08133 1972 19 WP MM NOT_NAMED 1972-03-03 00:00:00 TS 15.4000 139.700 main 1575 1575 __O___________ -1 15.4000 139.700 1 23 1007 14 51
1972059N08133 1972 19 WP MM NOT_NAMED 1972-03-03 03:00:00 TS 15.7923 140.353 main 1657 1657 __P___________ -1 15.7923 140.353 1 23 1007 17 61
1972059N08133 1972 19 WP MM NOT_NAMED 1972-03-03 06:00:00 TS 16.2000 141.200 main 1750 1750 __O___________ -1 16.2000 141.200 1 23 1007 20 63
1972059N08133 1972 19 WP MM NOT_NAMED 1972-03-03 09:00:00 TS 16.6786 142.169 main 1867 1867 __P___________ -1 16.6786 142.169 1 23 1007 22 62
1972059N08133 1972 19 WP MM NOT_NAMED 1972-03-03 12:00:00 TS 17.2000 143.200 main 1954 __O___________ -1 17.2000 143.200 1 23 1008 22 62

Digital Typhoon Data and Search

About IBTrACS Database

This database is a web-friendly format of International Best Track Archive for Climate Stewardship (IBTrACS), a global best track data archive curated by NOAA dating back to 1842.

Updated: 2021-10-21